createdAt,value
2023-09-06T00:01:10.809Z,77.31
2023-09-06T00:06:12.947Z,77.39
2023-09-06T00:11:16.258Z,77.89
2023-09-06T00:16:18.828Z,78.26
2023-09-06T00:21:21.048Z,78.66
2023-09-06T00:26:23.170Z,78.68
2023-09-06T00:31:25.445Z,78.93
2023-09-06T00:36:33.382Z,79.43
2023-09-06T00:41:40.397Z,79.31
2023-09-06T00:46:42.878Z,79.50
2023-09-06T00:51:45.091Z,79.72
2023-09-06T00:56:47.223Z,79.95
2023-09-06T01:01:49.473Z,80.04
2023-09-06T01:06:57.392Z,79.95
2023-09-06T01:12:00.270Z,80.15
2023-09-06T01:17:02.838Z,80.27
2023-09-06T01:22:41.627Z,80.43
2023-09-06T01:27:45.495Z,80.53
2023-09-06T01:32:47.829Z,80.74
2023-09-06T01:37:52.576Z,80.97
2023-09-06T01:42:55.343Z,81.06
2023-09-06T01:47:57.534Z,80.97
2023-09-06T01:52:59.712Z,81.00
2023-09-06T01:58:01.946Z,81.15
2023-09-06T02:03:04.749Z,81.10
2023-09-06T02:08:07.092Z,81.35
2023-09-06T02:13:09.344Z,81.51
2023-09-06T02:18:16.375Z,81.76
2023-09-06T02:23:19.051Z,81.91
2023-09-06T02:28:21.195Z,81.97
2023-09-06T02:33:23.525Z,82.34
2023-09-06T02:38:26.338Z,82.63
2023-09-06T02:43:28.546Z,83.15
2023-09-06T02:48:31.007Z,83.10
2023-09-06T02:53:34.148Z,83.30
2023-09-06T02:58:38.499Z,83.27
2023-09-06T03:03:43.516Z,83.72
2023-09-06T03:08:47.248Z,83.55
2023-09-06T03:13:49.319Z,83.59
2023-09-06T03:18:54.122Z,83.35
2023-09-06T03:23:56.270Z,83.57
2023-09-06T03:28:58.404Z,83.72
2023-09-06T03:34:00.501Z,83.93
2023-09-06T03:39:06.983Z,84.05
2023-09-06T03:44:09.332Z,84.08
2023-09-06T03:49:11.857Z,84.37
2023-09-06T03:54:14.247Z,84.55
2023-09-06T03:59:17.851Z,84.42
2023-09-06T04:04:20.054Z,84.34
2023-09-06T04:09:29.020Z,84.53
2023-09-06T04:14:35.369Z,84.54
2023-09-06T04:19:37.626Z,84.75
2023-09-06T04:24:39.940Z,84.93
2023-09-06T04:29:42.233Z,85.14
2023-09-06T04:34:44.530Z,85.45
2023-09-06T04:39:46.837Z,85.00
2023-09-06T04:44:48.938Z,84.10
2023-09-06T04:49:51.037Z,83.85
2023-09-06T04:54:53.345Z,83.44
2023-09-06T04:59:55.489Z,83.36
2023-09-06T05:04:57.570Z,83.08
2023-09-06T05:09:59.713Z,82.43
2023-09-06T05:15:02.179Z,81.97
2023-09-06T05:20:29.048Z,81.21
2023-09-06T05:25:31.826Z,80.60
2023-09-06T05:30:34.132Z,79.88
2023-09-06T05:35:36.503Z,79.52
2023-09-06T05:40:41.695Z,79.19
2023-09-06T05:45:43.933Z,78.86
2023-09-06T05:50:46.228Z,78.60
2023-09-06T05:55:48.407Z,78.22
2023-09-06T06:00:54.723Z,77.39
2023-09-06T10:31:54.793Z,35.11
2023-09-06T10:36:59.320Z,35.11
2023-09-06T10:42:10.676Z,34.37
2023-09-06T10:47:28.891Z,32.09
2023-09-06T10:52:42.455Z,31.23
2023-09-06T10:57:49.803Z,32.28
2023-09-06T11:03:11.102Z,32.06
2023-09-06T11:08:25.593Z,32.08
2023-09-06T11:13:31.941Z,31.92
2023-09-06T11:18:52.100Z,32.47
2023-09-06T11:23:55.300Z,32.50
2023-09-06T11:29:05.090Z,32.27
2023-09-06T11:34:10.227Z,32.51
2023-09-06T11:39:20.579Z,31.53
2023-09-06T11:44:24.600Z,32.56
2023-09-06T11:49:27.213Z,32.74
2023-09-06T11:54:33.019Z,31.73
2023-09-06T11:59:35.463Z,31.75
2023-09-06T12:04:37.573Z,31.71
2023-09-06T12:09:39.765Z,30.54
2023-09-06T12:14:44.305Z,30.67
2023-09-06T12:19:47.275Z,30.64
2023-09-06T12:24:49.831Z,30.25
2023-09-06T12:29:52.073Z,29.72
2023-09-06T12:34:54.218Z,29.29
2023-09-06T12:39:56.544Z,28.89
2023-09-06T12:44:58.780Z,28.39
2023-09-06T12:50:02.873Z,28.62
2023-09-06T12:55:05.914Z,28.55
2023-09-06T13:00:11.456Z,27.81
2023-09-06T13:05:21.044Z,27.30
2023-09-06T13:10:23.542Z,26.62
2023-09-06T13:15:25.684Z,26.05
2023-09-06T13:20:27.811Z,26.02
2023-09-06T13:25:30.098Z,25.20
2023-09-06T13:30:32.452Z,24.96
2023-09-06T13:35:34.577Z,23.90
2023-09-06T13:40:36.929Z,24.32
2023-09-06T13:45:39.067Z,23.22
2023-09-06T13:50:41.152Z,23.33
2023-09-06T13:55:43.321Z,22.79
2023-09-06T14:00:45.450Z,23.05
2023-09-06T14:05:47.769Z,23.01
2023-09-06T14:10:54.356Z,22.58
2023-09-06T14:15:57.013Z,23.03
2023-09-06T14:20:59.275Z,23.36
2023-09-06T14:26:01.541Z,23.23
2023-09-06T14:31:03.678Z,23.54
2023-09-06T14:36:06.379Z,23.15
2023-09-06T14:41:08.735Z,23.66
2023-09-06T14:46:10.903Z,23.52
2023-09-06T14:51:15.171Z,23.48
2023-09-06T14:56:17.596Z,23.94
2023-09-06T15:01:20.015Z,24.24
2023-09-06T15:06:22.948Z,25.18
2023-09-06T15:11:25.115Z,25.90
2023-09-06T15:16:27.682Z,26.20
2023-09-06T15:21:29.924Z,28.03
2023-09-06T15:26:32.053Z,28.32
2023-09-06T15:31:34.260Z,29.27
2023-09-06T15:36:36.655Z,29.49
2023-09-06T15:41:40.006Z,30.07
2023-09-06T15:46:43.179Z,30.95
2023-09-06T15:51:45.379Z,30.74
2023-09-06T15:56:47.945Z,31.60
2023-09-06T16:01:50.251Z,32.17
2023-09-06T16:06:54.262Z,31.96
2023-09-06T16:11:57.746Z,32.48
2023-09-06T16:17:00.312Z,33.21
2023-09-06T16:22:05.710Z,33.44
2023-09-06T16:27:08.082Z,34.08
2023-09-06T16:32:11.331Z,34.43
2023-09-06T16:37:13.549Z,35.00
2023-09-06T16:42:17.357Z,35.45
2023-09-06T16:47:19.510Z,36.44
2023-09-06T16:52:21.669Z,37.18
2023-09-06T16:57:23.880Z,37.82
2023-09-06T17:02:26.095Z,39.29
2023-09-06T17:07:28.483Z,39.24
2023-09-06T17:12:30.659Z,40.14
2023-09-06T17:17:33.859Z,40.60
2023-09-06T17:22:36.133Z,41.28
2023-09-06T17:27:39.266Z,42.13
2023-09-06T17:32:42.731Z,42.75
2023-09-06T17:37:44.978Z,43.24
2023-09-06T17:42:47.883Z,43.64
2023-09-06T17:47:50.269Z,44.21
2023-09-06T17:52:52.556Z,44.75
2023-09-06T17:57:54.702Z,45.44
2023-09-06T18:03:01.294Z,45.63
2023-09-06T18:08:06.531Z,48.29
2023-09-06T18:13:12.146Z,47.24
2023-09-06T18:18:26.491Z,47.86
2023-09-06T18:23:29.095Z,48.14
2023-09-06T18:28:32.771Z,48.69
2023-09-06T18:33:35.092Z,49.63
2023-09-06T18:38:38.120Z,50.10
2023-09-06T18:43:40.948Z,50.60
2023-09-06T18:48:43.205Z,51.13
2023-09-06T18:53:45.466Z,50.82
2023-09-06T18:58:47.606Z,51.60
2023-09-06T19:03:49.869Z,51.81
2023-09-06T19:08:52.371Z,52.49
2023-09-06T19:13:54.706Z,53.46
2023-09-06T19:18:56.960Z,53.54
2023-09-06T19:23:59.221Z,54.32
2023-09-06T19:29:01.908Z,54.00
2023-09-06T19:34:05.459Z,54.49
2023-09-06T19:39:12.424Z,54.86
2023-09-06T19:44:14.803Z,55.07
2023-09-06T19:49:17.006Z,55.66
2023-09-06T19:54:19.848Z,56.49
2023-09-06T19:59:21.949Z,57.06
2023-09-06T20:04:24.217Z,57.51
2023-09-06T20:09:29.627Z,58.12
2023-09-06T20:14:32.582Z,58.25
2023-09-06T20:19:34.815Z,58.37
2023-09-06T20:24:36.957Z,58.73
2023-09-06T20:29:40.212Z,58.94
2023-09-06T20:34:43.577Z,58.93
2023-09-06T20:39:45.800Z,59.38
2023-09-06T20:44:48.173Z,59.42
2023-09-06T20:50:01.388Z,59.18
2023-09-06T20:55:05.663Z,59.72
2023-09-06T21:00:10.531Z,59.82
2023-09-06T21:05:12.716Z,60.22
2023-09-06T21:10:15.226Z,60.83
2023-09-06T21:15:17.519Z,60.60
2023-09-06T21:20:20.922Z,61.24
2023-09-06T21:25:23.325Z,61.58
2023-09-06T21:30:25.434Z,61.65
2023-09-06T21:35:30.338Z,62.04
2023-09-06T21:40:32.537Z,62.14
2023-09-06T21:45:36.815Z,62.37
2023-09-06T21:50:41.122Z,62.67
2023-09-06T21:55:43.426Z,63.01
2023-09-06T22:00:46.151Z,63.62
2023-09-06T22:05:49.629Z,63.99
2023-09-06T22:10:52.053Z,64.37
2023-09-06T22:15:54.809Z,64.69
2023-09-06T22:20:57.173Z,64.89
2023-09-06T22:26:00.026Z,65.49
2023-09-06T22:31:02.506Z,65.94
2023-09-06T22:36:04.762Z,66.35
2023-09-06T22:41:06.835Z,67.05
2023-09-06T22:46:09.243Z,68.22
2023-09-06T22:51:11.456Z,68.90
2023-09-06T22:56:13.609Z,69.62
2023-09-06T23:01:15.867Z,70.44
2023-09-06T23:06:18.197Z,71.52
2023-09-06T23:11:20.694Z,71.75
2023-09-06T23:16:23.569Z,72.52
2023-09-06T23:21:33.527Z,72.95
2023-09-06T23:26:37.857Z,73.29
2023-09-06T23:31:44.656Z,72.39
2023-09-06T23:36:47.041Z,72.15
2023-09-06T23:41:54.444Z,71.73
2023-09-06T23:46:57.783Z,71.65
2023-09-06T23:51:59.987Z,71.32
2023-09-06T23:57:03.886Z,71.37
